Terminal Aerodrome Forecast
Issued by NWS

Home | Current Version | Previous Version | Text Only | Print | Product List | Glossary On
Versions: 1 2 3 4 5 6 7 8 9 10 11 12 13 14 15 16 17 18 19 20 21 22 23 24
000
FTUS43 KDVN 271400 AAA
TAFCID
TAF AMD
KCID 271401Z 2714/2812 02009KT P6SM SKC
     FM271600 36010KT P6SM SCT035
     FM280300 05004KT P6SM SCT150=

USA.gov is the U.S. government's official web portal to all federal, state and local government web resources and services.